Archival Weather

Heathrow

Heathrow, United Kingdom (EGLL)

Report from: Thursday, June 23, 2022 11:50 AM BST
Current time: Tuesday, August 16, 2022 7:16 AM BST

Current weather
Weather history
Weather forecast

Present weatherLight rain
Temperature20.0°C (68.0°F)
Dew point14.0°C (57.2°F)
Winds 4 kts (2.1 m/s, 4.6 mph) Vrb
Winds variableWinds variable from North (10°) to East (100°)
Visibility6.2 mi. (10 km)
Clouds Few clouds 3,700 ft. (1,128 m)
Altimeter29.83 in.Hg (1010 mB)
Relative humidity68 %
Density altitude917 ft. (279 m)
Remarks Fully automated report
Corrected report
No significant changes expected in the next two hours
Flight conditions Visual Meteorological Conditions
Raw dataCOR EGLL 231050Z AUTO 05004KT 010V100 9999 -RA FEW037 20/14 Q1010 NOSIG
An error has occurred. This application may no longer respond until reloaded. Reload 🗙